Terminal Aerodrome Forecast
Issued by NWS

Home | Current Version | Previous Version | Text Only | Print | Product List | Glossary Off
Versions: 1 2 3 4 5 6 7 8 9 10 11 12 13

000
FTUS42 KMHX 131121
TAFOAJ
TAF
KOAJ 131121Z 1312/1412 24010KT P6SM SCT020
      TEMPO 1312/1316 BKN020
     FM131600 30010KT P6SM BKN020
     FM132100 35010KT P6SM BKN035
     FM140000 01010KT P6SM SCT030
      AMD LTD TO CLD VIS AND WIND=

USA.gov is the U.S. government's official web portal to all federal, state and local government web resources and services.